Zionhill, Pennsylvania
Current Conditions -  °F | °C
As of 1:15 PM on Thursday 23 Oct 2014 (Local Time) from KUKT Reporting Station
Overcast Overcast  
Wind Chill: 52°   Ceiling: 2300
Heat Index: 52°   Visibility: 10mi
Dew Point: 43°   Wind: 8mph
Humidity: 71%   Direction: 340°NNW
Pressure: 29.8"   Gusts: 18mph
Location:  40.48°N, 75.39°W
Report Text: KUKT 231715Z AUTO 34007G16KT 10SM OVC023 11/06 A2980 RMK AO1
Loading
Personal Weather Stations






























Interactive Weather Map
Tropical Storm Tracking
New forecast layout! Learn more

10-Day Weather Forecast

Advertisements
Track Severe Weather on mobile